Time;durP1;ratioP1;P1;durP2;ratioP2;P2;SDS_P1;SDS_P2;PMS_P1;PMS_P2;Temp;Humidity;BMP_temperature;BMP_pressure;BME280_temperature;BME280_humidity;BME280_pressure;Samples;Min_cycle;Max_cycle;Signal;HPM_P1;HPM_P2
2022/09/25 00:00:02;;;;;;;27.50;14.45;;;;;;;;;;10337140;23;20058;-86
2022/09/25 00:04:25;;;;;;;27.08;14.27;;;;;;;;;;10337129;23;20363;-86
2022/09/25 00:08:28;;;;;;;22.50;13.63;;;;;;;;;;10336837;23;20077;-87
2022/09/25 00:12:32;;;;;;;21.45;12.95;;;;;;;;;;10336355;23;20039;-86
2022/09/25 00:16:35;;;;;;;22.92;13.25;;;;;;;;;;10285480;23;20034;-86
2022/09/25 00:20:40;;;;;;;23.48;13.00;;;;;;;;;;10336906;23;20016;-86
2022/09/25 00:24:45;;;;;;;23.75;13.52;;;;;;;;;;10310865;23;20024;-85
2022/09/25 00:28:49;;;;;;;21.50;12.30;;;;;;;;;;10310133;23;20522;-86
2022/09/25 00:32:54;;;;;;;26.52;13.32;;;;;;;;;;10336540;23;20020;-85
2022/09/25 00:36:59;;;;;;;22.98;13.40;;;;;;;;;;10310053;23;20024;-86
2022/09/25 00:41:07;;;;;;;24.38;12.88;;;;;;;;;;10310394;23;20051;-86
2022/09/25 00:45:15;;;;;;;23.30;13.55;;;;;;;;;;10310496;23;20024;-86
2022/09/25 00:49:21;;;;;;;23.63;12.38;;;;;;;;;;10353374;23;20016;-86
2022/09/25 00:53:30;;;;;;;26.02;13.98;;;;;;;;;;10309661;23;20027;-86
2022/09/25 00:57:39;;;;;;;23.77;12.63;;;;;;;;;;10310250;23;20024;-86
2022/09/25 01:01:44;;;;;;;25.30;13.15;;;;;;;;;;10353546;23;20020;-86
2022/09/25 01:05:52;;;;;;;25.65;14.70;;;;;;;;;;10309172;23;20251;-85
2022/09/25 01:09:58;;;;;;;22.55;13.57;;;;;;;;;;10310120;23;20031;-86
2022/09/25 01:14:05;;;;;;;27.13;12.75;;;;;;;;;;10309935;23;20336;-86
2022/09/25 01:18:22;;;;;;;25.27;14.57;;;;;;;;;;10353402;23;20050;-86
2022/09/25 01:22:39;;;;;;;26.02;12.60;;;;;;;;;;10310607;23;20055;-86
2022/09/25 01:27:05;;;;;;;22.50;12.55;;;;;;;;;;10312930;23;20020;-85
2022/09/25 01:31:20;;;;;;;19.92;10.90;;;;;;;;;;10313516;23;20020;-86
2022/09/25 01:35:33;;;;;;;19.75;12.05;;;;;;;;;;10312935;23;20078;-86
2022/09/25 01:39:42;;;;;;;24.70;12.10;;;;;;;;;;10313155;23;20108;-86
2022/09/25 01:43:47;;;;;;;21.95;11.32;;;;;;;;;;10312868;23;20047;-86
2022/09/25 01:47:54;;;;;;;24.23;14.45;;;;;;;;;;10312794;23;20095;-86
2022/09/25 01:51:59;;;;;;;30.95;15.23;;;;;;;;;;10312848;23;20052;-86
2022/09/25 01:56:10;;;;;;;22.92;13.48;;;;;;;;;;10312113;23;20099;-86
2022/09/25 02:00:18;;;;;;;26.77;14.95;;;;;;;;;;10312487;23;20055;-86
2022/09/25 02:04:26;;;;;;;31.33;15.95;;;;;;;;;;10312476;23;20021;-86
2022/09/25 02:08:38;;;;;;;29.08;14.25;;;;;;;;;;10312523;23;20479;-86
2022/09/25 02:12:46;;;;;;;;;;;;;;;;;;10312972;23;20048;-85
2022/09/25 02:16:55;;;;;;;22.38;11.68;;;;;;;;;;10312672;23;20591;-85
2022/09/25 02:21:11;;;;;;;22.85;12.75;;;;;;;;;;10313106;23;20044;-86
2022/09/25 02:25:23;;;;;;;27.35;13.45;;;;;;;;;;10313250;23;20024;-85
2022/09/25 02:29:28;;;;;;;29.00;13.55;;;;;;;;;;10312000;23;20035;-86
2022/09/25 02:33:34;;;;;;;25.90;12.98;;;;;;;;;;10311655;23;20052;-85
2022/09/25 03:35:33;;;;;;;27.30;13.07;;;;;;;;;;10388314;22;20032;-86
2022/09/25 03:39:36;;;;;;;25.17;14.02;;;;;;;;;;10386672;22;20019;-86
2022/09/25 03:43:39;;;;;;;26.95;13.90;;;;;;;;;;10386754;22;20376;-88
2022/09/25 03:47:42;;;;;;;28.17;14.80;;;;;;;;;;10382638;22;20114;-87
2022/09/25 03:51:45;;;;;;;27.80;15.30;;;;;;;;;;10387430;22;20444;-87
2022/09/25 03:55:48;;;;;;;24.13;13.07;;;;;;;;;;10387408;22;20024;-87
2022/09/25 03:59:53;;;;;;;27.40;13.38;;;;;;;;;;10385986;22;20356;-88
2022/09/25 04:03:56;;;;;;;26.02;13.48;;;;;;;;;;10402580;22;20073;-87
2022/09/25 04:08:00;;;;;;;25.98;13.98;;;;;;;;;;10384718;22;20020;-86
2022/09/25 04:12:06;;;;;;;25.92;13.98;;;;;;;;;;10384895;22;20026;-85
2022/09/25 04:16:08;;;;;;;29.05;16.88;;;;;;;;;;10401733;22;20069;-87
2022/09/25 04:20:11;;;;;;;26.55;15.65;;;;;;;;;;10385293;22;20464;-86
2022/09/25 04:28:40;;;;;;;34.50;18.08;;;;;;;;;;10358404;22;20038;-87
2022/09/25 04:37:05;;;;;;;56.40;27.02;;;;;;;;;;10358140;22;20456;-86
2022/09/25 04:41:11;;;;;;;47.72;25.00;;;;;;;;;;10402149;22;20019;-86
2022/09/25 04:45:15;;;;;;;45.60;22.95;;;;;;;;;;10358562;22;20347;-86
2022/09/25 04:49:20;;;;;;;42.45;21.23;;;;;;;;;;10356906;22;20078;-87
2022/09/25 04:53:25;;;;;;;41.80;21.90;;;;;;;;;;10360265;22;20044;-87
2022/09/25 04:57:32;;;;;;;55.75;26.52;;;;;;;;;;10361027;22;20019;-87
2022/09/25 05:01:36;;;;;;;47.53;24.88;;;;;;;;;;10363974;22;20540;-88
2022/09/25 05:05:40;;;;;;;49.90;26.33;;;;;;;;;;10362930;22;20459;-88
2022/09/25 05:09:46;;;;;;;45.10;24.42;;;;;;;;;;10362208;22;20020;-88
2022/09/25 05:13:55;;;;;;;38.70;21.33;;;;;;;;;;10363484;22;20020;-89
2022/09/25 05:18:05;;;;;;;56.05;29.90;;;;;;;;;;10363758;22;20024;-87
2022/09/25 05:22:07;;;;;;;61.22;29.25;;;;;;;;;;10366230;22;20028;-88
2022/09/25 05:26:13;;;;;;;54.40;28.85;;;;;;;;;;10365209;22;20085;-87
2022/09/25 05:30:21;;;;;;;48.15;26.92;;;;;;;;;;10399779;22;20023;-87
2022/09/25 05:34:24;;;;;;;35.22;19.67;;;;;;;;;;10365866;22;20032;-89
2022/09/25 05:38:27;;;;;;;33.15;19.75;;;;;;;;;;10348430;23;20030;-87
2022/09/25 05:42:31;;;;;;;26.77;16.48;;;;;;;;;;10372728;23;20068;-87
2022/09/25 05:46:35;;;;;;;33.90;18.35;;;;;;;;;;10374535;23;20035;-86
2022/09/25 05:50:37;;;;;;;25.33;14.55;;;;;;;;;;10377408;23;20440;-87
2022/09/25 05:54:42;;;;;;;24.25;14.38;;;;;;;;;;10391128;22;20026;-88
2022/09/25 05:58:44;;;;;;;40.78;22.75;;;;;;;;;;10408955;22;20024;-90
2022/09/25 06:02:53;;;;;;;38.15;22.77;;;;;;;;;;10391033;22;20420;-90
2022/09/25 06:06:55;;;;;;;31.95;19.10;;;;;;;;;;10407761;22;20036;-88
2022/09/25 06:11:06;;;;;;;34.97;19.17;;;;;;;;;;10386898;22;20104;-88
2022/09/25 06:33:25;;;;;;;34.63;24.35;;;;;;;;;;10340395;22;20032;-87
2022/09/25 06:37:31;;;;;;;26.95;18.65;;;;;;;;;;10356561;23;20055;-89
2022/09/25 06:41:41;;;;;;;22.73;16.30;;;;;;;;;;10346939;23;20024;-87
2022/09/25 06:45:59;;;;;;;25.25;18.38;;;;;;;;;;10330997;23;20385;-89
2022/09/25 06:50:07;;;;;;;44.15;23.75;;;;;;;;;;10357091;23;20027;-88
2022/09/25 06:58:24;;;;;;;67.57;30.05;;;;;;;;;;10388478;22;20047;-88
2022/09/25 07:07:12;;;;;;;29.90;15.13;;;;;;;;;;10297774;22;20480;-88
2022/09/25 07:17:10;;;;;;;16.55;11.57;;;;;;;;;;10384299;22;20022;-88
2022/09/25 07:25:30;;;;;;;14.02;9.98;;;;;;;;;;10385375;22;20051;-89
2022/09/25 07:35:04;;;;;;;13.10;9.65;;;;;;;;;;10381919;22;20035;-88
2022/09/25 07:39:09;;;;;;;14.77;9.48;;;;;;;;;;10382320;22;20023;-88
2022/09/25 07:43:14;;;;;;;15.98;9.75;;;;;;;;;;10383753;22;20443;-89
2022/09/25 07:47:18;;;;;;;13.70;9.43;;;;;;;;;;10398311;22;20103;-88
2022/09/25 07:51:21;;;;;;;13.10;9.70;;;;;;;;;;10381103;22;20027;-88
2022/09/25 07:55:26;;;;;;;17.20;11.43;;;;;;;;;;10355184;22;20047;-88
2022/09/25 07:59:33;;;;;;;14.40;9.70;;;;;;;;;;10355406;22;20043;-89
2022/09/25 08:03:36;;;;;;;17.05;10.45;;;;;;;;;;10354439;22;20384;-88
2022/09/25 08:07:44;;;;;;;15.63;11.43;;;;;;;;;;10381438;22;20102;-88
2022/09/25 08:29:49;;;;;;;19.02;10.82;;;;;;;;;;10418968;22;20038;-88
2022/09/25 08:34:44;;;;;;;15.40;9.40;;;;;;;;;;10429665;22;20507;-88
2022/09/25 08:44:02;;;;;;;16.35;10.57;;;;;;;;;;10432059;22;20023;-88
2022/09/25 08:52:25;;;;;;;15.80;8.95;;;;;;;;;;10431225;22;20015;-89
2022/09/25 08:56:33;;;;;;;12.43;8.60;;;;;;;;;;10431826;22;20469;-88
2022/09/25 09:00:38;;;;;;;13.82;8.80;;;;;;;;;;10448162;22;20027;-88
2022/09/25 09:04:45;;;;;;;14.48;8.57;;;;;;;;;;10431812;22;20019;-88
2022/09/25 09:08:55;;;;;;;11.63;8.60;;;;;;;;;;10449403;22;20019;-88
2022/09/25 09:13:04;;;;;;;14.73;9.02;;;;;;;;;;10449323;22;20064;-88
2022/09/25 09:17:17;;;;;;;13.10;9.23;;;;;;;;;;10449096;22;20047;-89
2022/09/25 09:21:25;;;;;;;12.65;9.38;;;;;;;;;;10448048;22;20095;-89
2022/09/25 09:25:36;;;;;;;16.23;8.90;;;;;;;;;;10431783;22;20020;-88
2022/09/25 09:29:53;;;;;;;13.48;8.43;;;;;;;;;;10449290;22;20100;-88
2022/09/25 09:34:09;;;;;;;13.75;9.27;;;;;;;;;;10447805;22;20508;-88
2022/09/25 09:38:22;;;;;;;15.15;8.40;;;;;;;;;;10404589;22;20023;-88
2022/09/25 09:42:33;;;;;;;13.38;8.77;;;;;;;;;;10449035;22;20114;-88
2022/09/25 09:46:46;;;;;;;16.25;9.05;;;;;;;;;;10453232;22;20397;-87
2022/09/25 09:50:54;;;;;;;11.68;8.00;;;;;;;;;;10452920;22;20026;-88
2022/09/25 09:55:01;;;;;;;19.13;11.02;;;;;;;;;;10452468;22;20019;-88
2022/09/25 09:59:06;;;;;;;12.27;6.85;;;;;;;;;;10451077;22;20019;-88
2022/09/25 10:03:17;;;;;;;10.82;7.18;;;;;;;;;;10451957;22;20102;-88
2022/09/25 10:07:23;;;;;;;11.63;7.40;;;;;;;;;;10452578;22;20023;-88
2022/09/25 10:11:26;;;;;;;32.75;16.88;;;;;;;;;;10452773;22;20019;-88
2022/09/25 10:15:35;;;;;;;11.73;7.75;;;;;;;;;;10433714;22;20019;-88
2022/09/25 10:19:48;;;;;;;9.45;6.60;;;;;;;;;;10407527;22;20097;-88
2022/09/25 10:23:53;;;;;;;12.30;7.43;;;;;;;;;;10452084;22;20351;-88
2022/09/25 10:27:56;;;;;;;18.95;11.18;;;;;;;;;;10434364;22;20557;-88
2022/09/25 10:32:04;;;;;;;16.75;11.75;;;;;;;;;;10433838;22;20019;-89
2022/09/25 10:36:08;;;;;;;10.60;6.40;;;;;;;;;;10450193;22;20023;-88
2022/09/25 10:40:32;;;;;;;9.82;5.80;;;;;;;;;;10452551;22;20407;-89
2022/09/25 10:44:37;;;;;;;8.82;6.15;;;;;;;;;;10453609;22;20374;-88
2022/09/25 10:53:04;;;;;;;9.18;5.75;;;;;;;;;;10455986;22;20086;-87
2022/09/25 10:57:17;;;;;;;12.05;5.85;;;;;;;;;;10453826;22;20453;-88
2022/09/25 11:01:20;;;;;;;8.82;6.10;;;;;;;;;;10454725;22;20047;-87
2022/09/25 11:05:28;;;;;;;7.95;5.45;;;;;;;;;;10437085;22;20144;-87
2022/09/25 11:09:34;;;;;;;11.85;5.90;;;;;;;;;;10437385;22;20019;-87
2022/09/25 11:13:44;;;;;;;10.73;6.10;;;;;;;;;;10456937;22;20030;-87
2022/09/25 11:17:50;;;;;;;10.07;5.95;;;;;;;;;;10456992;22;20109;-88
2022/09/25 11:22:06;;;;;;;8.88;5.85;;;;;;;;;;10456990;22;20351;-87
2022/09/25 11:26:18;;;;;;;9.13;5.82;;;;;;;;;;10452560;22;20020;-87
2022/09/25 11:30:22;;;;;;;11.18;6.32;;;;;;;;;;10456962;22;20021;-88
2022/09/25 11:34:42;;;;;;;10.27;6.35;;;;;;;;;;10438816;22;20051;-87
2022/09/25 11:43:12;;;;;;;12.45;7.10;;;;;;;;;;10456689;22;20064;-88
2022/09/25 11:47:22;;;;;;;12.32;5.85;;;;;;;;;;10456217;22;20046;-89
2022/09/25 11:51:54;;;;;;;9.85;6.15;;;;;;;;;;10456326;22;20023;-88
2022/09/25 11:56:06;;;;;;;13.73;8.80;;;;;;;;;;10456286;22;20020;-87
2022/09/25 12:00:19;;;;;;;9.65;5.53;;;;;;;;;;10456023;22;20019;-88
2022/09/25 12:04:38;;;;;;;9.43;5.20;;;;;;;;;;10455904;22;20347;-87
2022/09/25 12:08:54;;;;;;;11.88;5.78;;;;;;;;;;10455634;22;20023;-87
2022/09/25 12:13:04;;;;;;;12.48;6.30;;;;;;;;;;10439223;22;20673;-88
2022/09/25 12:17:16;;;;;;;12.02;6.43;;;;;;;;;;10450530;22;20072;-88
2022/09/25 12:21:25;;;;;;;8.80;6.00;;;;;;;;;;10449872;22;20019;-88
2022/09/25 12:30:22;;;;;;;9.65;5.35;;;;;;;;;;10225224;23;20107;-88
2022/09/25 12:34:51;;;;;;;9.13;5.80;;;;;;;;;;10365720;22;20455;-89
2022/09/25 12:39:12;;;;;;;8.55;4.97;;;;;;;;;;10431211;22;20404;-88
2022/09/25 12:43:35;;;;;;;11.30;5.88;;;;;;;;;;10432088;22;20062;-90
2022/09/25 12:47:46;;;;;;;9.38;5.18;;;;;;;;;;10390078;22;20517;-89
2022/09/25 12:52:11;;;;;;;7.95;4.90;;;;;;;;;;10397636;22;20022;-89
2022/09/25 12:56:23;;;;;;;9.20;5.40;;;;;;;;;;10398509;22;20055;-88
2022/09/25 13:00:51;;;;;;;10.02;6.03;;;;;;;;;;10381934;22;20046;-88
2022/09/25 13:10:08;;;;;;;8.73;5.32;;;;;;;;;;10371823;22;20070;-87
2022/09/25 13:14:28;;;;;;;9.43;5.38;;;;;;;;;;10398587;22;20054;-87
2022/09/25 13:18:50;;;;;;;9.45;5.50;;;;;;;;;;10382465;22;20032;-86
2022/09/25 13:23:13;;;;;;;8.63;5.68;;;;;;;;;;10385296;22;20027;-89
2022/09/25 13:27:24;;;;;;;10.38;5.80;;;;;;;;;;10406055;22;20020;-87
2022/09/25 13:31:35;;;;;;;8.45;5.72;;;;;;;;;;10359975;22;20034;-88
2022/09/25 13:36:06;;;;;;;7.97;5.63;;;;;;;;;;10402103;22;20099;-89
2022/09/25 13:45:06;;;;;;;9.18;5.55;;;;;;;;;;10384147;22;20019;-88
2022/09/25 13:49:34;;;;;;;20.85;5.95;;;;;;;;;;10400162;22;20515;-88
2022/09/25 13:53:55;;;;;;;9.75;5.45;;;;;;;;;;10401118;22;20062;-88
2022/09/25 13:58:02;;;;;;;8.67;6.23;;;;;;;;;;10383859;22;20020;-87
2022/09/25 14:02:38;;;;;;;8.48;6.40;;;;;;;;;;10400404;22;20391;-88
2022/09/25 14:06:41;;;;;;;9.90;6.28;;;;;;;;;;10400146;22;20089;-87
2022/09/25 14:10:46;;;;;;;9.10;6.05;;;;;;;;;;10383592;22;20099;-87
2022/09/25 14:14:54;;;;;;;8.05;5.72;;;;;;;;;;10382889;22;20184;-87
2022/09/25 14:19:01;;;;;;;9.32;5.78;;;;;;;;;;10400229;22;20099;-88
2022/09/25 14:23:11;;;;;;;9.00;5.97;;;;;;;;;;10399657;22;20023;-88
2022/09/25 14:27:21;;;;;;;8.43;6.47;;;;;;;;;;10396934;22;20034;-89
2022/09/25 14:31:43;;;;;;;9.27;5.80;;;;;;;;;;10398974;22;20019;-86
2022/09/25 14:36:00;;;;;;;9.98;5.90;;;;;;;;;;10399664;22;20465;-88
2022/09/25 14:40:10;;;;;;;10.95;5.90;;;;;;;;;;10383486;22;20020;-88
2022/09/25 14:44:24;;;;;;;11.20;6.38;;;;;;;;;;10399878;22;20019;-88
2022/09/25 14:48:31;;;;;;;11.68;6.32;;;;;;;;;;10400082;22;20519;-87
2022/09/25 14:52:37;;;;;;;9.23;6.15;;;;;;;;;;10399437;22;20015;-88
2022/09/25 14:56:40;;;;;;;11.80;6.55;;;;;;;;;;10382971;22;20309;-88
2022/09/25 15:00:48;;;;;;;10.77;5.95;;;;;;;;;;10355814;22;20024;-89
2022/09/25 15:04:51;;;;;;;10.02;6.35;;;;;;;;;;10382572;22;20035;-87
2022/09/25 15:08:56;;;;;;;35.58;21.38;;;;;;;;;;10382220;22;20439;-87
2022/09/25 15:13:14;;;;;;;9.52;6.63;;;;;;;;;;10382646;22;20624;-88
2022/09/25 15:17:24;;;;;;;11.07;7.05;;;;;;;;;;10382578;22;20426;-87
2022/09/25 15:21:29;;;;;;;9.18;6.43;;;;;;;;;;10382180;22;20023;-88
2022/09/25 15:25:37;;;;;;;11.35;7.28;;;;;;;;;;10398814;22;20493;-87
2022/09/25 15:29:45;;;;;;;12.55;6.70;;;;;;;;;;10382839;22;20347;-88
2022/09/25 15:34:02;;;;;;;11.13;6.97;;;;;;;;;;10399282;22;20337;-88
2022/09/25 15:38:12;;;;;;;10.07;7.03;;;;;;;;;;10399525;22;20027;-88
2022/09/25 15:42:17;;;;;;;10.75;6.30;;;;;;;;;;10398471;22;20030;-87
2022/09/25 15:46:37;;;;;;;9.75;6.63;;;;;;;;;;10381762;22;20073;-90
2022/09/25 15:50:43;;;;;;;10.20;7.43;;;;;;;;;;10398421;22;20459;-87
2022/09/25 15:54:48;;;;;;;10.30;7.07;;;;;;;;;;10398014;22;20340;-87
2022/09/25 15:58:56;;;;;;;30.27;20.70;;;;;;;;;;10381327;22;20386;-88
2022/09/25 16:07:28;;;;;;;11.13;6.72;;;;;;;;;;10398794;22;20015;-88
2022/09/25 16:11:32;;;;;;;30.05;16.33;;;;;;;;;;10388670;22;20455;-88
2022/09/25 16:15:46;;;;;;;15.52;10.00;;;;;;;;;;10380695;22;20019;-87
2022/09/25 16:20:28;;;;;;;26.58;14.10;;;;;;;;;;10380501;22;20023;-88
2022/09/25 16:24:31;;;;;;;12.80;8.70;;;;;;;;;;10398425;22;20023;-87
2022/09/25 16:28:36;;;;;;;13.73;8.82;;;;;;;;;;10381623;22;20069;-88
2022/09/25 16:32:44;;;;;;;27.60;14.45;;;;;;;;;;10380554;22;20044;-88
2022/09/25 16:36:50;;;;;;;32.78;15.48;;;;;;;;;;10398212;22;20391;-88
2022/09/25 16:41:07;;;;;;;13.63;8.60;;;;;;;;;;10354082;22;20031;-87
2022/09/25 16:45:16;;;;;;;13.85;7.97;;;;;;;;;;10380689;22;20054;-88
2022/09/25 16:49:22;;;;;;;14.25;9.20;;;;;;;;;;10381334;22;20023;-88
2022/09/25 16:53:28;;;;;;;16.27;9.93;;;;;;;;;;10397810;22;20027;-87
2022/09/25 16:57:34;;;;;;;18.00;9.77;;;;;;;;;;10398073;22;20359;-87
2022/09/25 17:01:38;;;;;;;25.08;14.93;;;;;;;;;;10381064;22;20043;-88
2022/09/25 17:05:42;;;;;;;27.85;16.42;;;;;;;;;;10379969;22;20614;-87
2022/09/25 17:09:45;;;;;;;34.00;22.98;;;;;;;;;;10380429;22;20102;-87
2022/09/25 17:13:49;;;;;;;22.42;15.50;;;;;;;;;;10398292;22;20062;-88
2022/09/25 17:17:53;;;;;;;17.75;11.95;;;;;;;;;;10380538;22;20019;-87
2022/09/25 17:21:58;;;;;;;17.60;10.35;;;;;;;;;;10397937;22;20023;-87
2022/09/25 17:26:04;;;;;;;17.73;12.07;;;;;;;;;;10380775;22;20065;-86
2022/09/25 17:30:08;;;;;;;25.95;16.52;;;;;;;;;;10397557;22;20714;-87
2022/09/25 17:34:17;;;;;;;26.23;17.83;;;;;;;;;;10327644;22;20604;-86
2022/09/25 17:38:22;;;;;;;37.53;21.75;;;;;;;;;;10379442;22;20050;-88
2022/09/25 17:42:26;;;;;;;59.20;29.60;;;;;;;;;;10380489;22;20447;-87
2022/09/25 17:46:32;;;;;;;62.83;29.63;;;;;;;;;;10380404;22;20455;-88
2022/09/25 17:50:37;;;;;;;44.90;28.15;;;;;;;;;;10380831;22;20504;-86
2022/09/25 17:54:45;;;;;;;63.85;33.30;;;;;;;;;;10382939;22;20110;-88
2022/09/25 17:58:53;;;;;;;32.15;18.17;;;;;;;;;;10397258;22;20444;-88
2022/09/25 18:03:07;;;;;;;31.15;18.77;;;;;;;;;;10378729;22;20688;-89
2022/09/25 18:07:13;;;;;;;33.60;19.38;;;;;;;;;;10382001;22;20023;-89
2022/09/25 18:11:21;;;;;;;43.85;22.95;;;;;;;;;;10390792;22;20529;-86
2022/09/25 18:15:26;;;;;;;45.30;21.73;;;;;;;;;;10400899;22;20020;-87
2022/09/25 18:23:49;;;;;;;37.45;22.50;;;;;;;;;;10403617;22;20356;-86
2022/09/25 18:27:55;;;;;;;49.75;25.38;;;;;;;;;;10361149;22;20069;-87
2022/09/25 18:31:58;;;;;;;65.82;24.48;;;;;;;;;;10388792;22;20016;-87
2022/09/25 18:36:02;;;;;;;54.53;26.42;;;;;;;;;;10388180;22;20019;-86
2022/09/25 18:40:06;;;;;;;37.83;19.65;;;;;;;;;;10388948;22;20019;-87
2022/09/25 18:44:16;;;;;;;62.13;26.50;;;;;;;;;;10405465;22;20099;-87
2022/09/25 18:48:20;;;;;;;57.60;29.85;;;;;;;;;;10388816;22;20015;-86
2022/09/25 18:52:26;;;;;;;151.35;43.03;;;;;;;;;;10388709;22;20098;-86
2022/09/25 18:56:33;;;;;;;103.18;34.00;;;;;;;;;;10405777;22;20011;-86
2022/09/25 19:00:38;;;;;;;43.50;21.42;;;;;;;;;;10388570;22;20094;-87
2022/09/25 19:04:41;;;;;;;32.42;16.40;;;;;;;;;;10388481;22;20023;-86
2022/09/25 19:08:52;;;;;;;36.65;17.15;;;;;;;;;;10405533;22;20019;-86
2022/09/25 19:12:55;;;;;;;52.40;23.45;;;;;;;;;;10361192;22;20516;-86
2022/09/25 19:17:01;;;;;;;34.45;17.52;;;;;;;;;;10388129;22;20081;-86
2022/09/25 19:21:03;;;;;;;56.47;28.48;;;;;;;;;;10388359;22;20024;-86
2022/09/25 19:25:09;;;;;;;44.92;22.02;;;;;;;;;;10388029;22;20019;-84
2022/09/25 19:29:11;;;;;;;37.33;19.38;;;;;;;;;;10360965;22;20387;-87
2022/09/25 19:33:16;;;;;;;65.40;23.95;;;;;;;;;;10361105;22;20102;-88
2022/09/25 19:37:22;;;;;;;30.10;15.00;;;;;;;;;;10405098;22;20020;-86
2022/09/25 19:41:27;;;;;;;27.38;14.60;;;;;;;;;;10388142;22;20022;-86
2022/09/25 19:45:29;;;;;;;24.42;14.98;;;;;;;;;;10388050;22;20022;-87
2022/09/25 19:49:36;;;;;;;28.92;14.75;;;;;;;;;;10404864;22;20019;-87
2022/09/25 19:53:40;;;;;;;25.58;14.68;;;;;;;;;;10387842;22;20436;-86
2022/09/25 19:57:46;;;;;;;24.95;14.43;;;;;;;;;;10404604;22;20440;-85
2022/09/25 20:01:49;;;;;;;23.67;13.98;;;;;;;;;;10387733;22;20023;-87
2022/09/25 20:06:01;;;;;;;22.80;14.77;;;;;;;;;;10387349;22;20039;-87
2022/09/25 20:10:05;;;;;;;25.80;15.95;;;;;;;;;;10388601;22;20031;-86
2022/09/25 20:14:10;;;;;;;45.33;21.67;;;;;;;;;;10362061;22;20452;-87
2022/09/25 20:18:13;;;;;;;31.27;17.13;;;;;;;;;;10388837;22;20015;-86
2022/09/25 20:22:17;;;;;;;27.77;16.13;;;;;;;;;;10387517;22;20031;-86
2022/09/25 20:26:21;;;;;;;32.65;19.65;;;;;;;;;;10387509;22;20023;-85
2022/09/25 20:30:24;;;;;;;39.67;19.58;;;;;;;;;;10387193;22;20026;-85
2022/09/25 20:34:27;;;;;;;33.55;18.45;;;;;;;;;;10386979;22;20016;-85
2022/09/25 20:38:32;;;;;;;31.70;17.08;;;;;;;;;;10387038;22;20411;-86
2022/09/25 20:42:35;;;;;;;30.95;16.25;;;;;;;;;;10403818;22;20016;-86
2022/09/25 20:46:38;;;;;;;28.40;15.55;;;;;;;;;;10387547;22;20020;-86
2022/09/25 20:50:49;;;;;;;29.52;17.05;;;;;;;;;;10387216;22;20436;-86
2022/09/25 20:54:55;;;;;;;34.22;19.52;;;;;;;;;;10403967;22;20115;-85
2022/09/25 20:58:58;;;;;;;28.65;16.80;;;;;;;;;;10403985;22;20020;-85
2022/09/25 21:03:01;;;;;;;28.25;16.55;;;;;;;;;;10386837;22;20039;-85
2022/09/25 21:07:04;;;;;;;31.23;17.27;;;;;;;;;;10387084;22;20011;-85
2022/09/25 21:11:10;;;;;;;27.23;15.90;;;;;;;;;;10386830;22;20095;-86
2022/09/25 21:15:12;;;;;;;33.03;18.42;;;;;;;;;;10403872;22;20019;-86
2022/09/25 21:19:16;;;;;;;50.75;22.98;;;;;;;;;;10387026;22;20557;-86
2022/09/25 21:23:19;;;;;;;33.10;17.42;;;;;;;;;;10386823;22;20102;-85
2022/09/25 21:27:23;;;;;;;31.50;14.93;;;;;;;;;;10387014;22;20020;-86
2022/09/25 21:31:27;;;;;;;30.25;16.30;;;;;;;;;;10359660;22;20091;-85
2022/09/25 21:35:30;;;;;;;26.38;15.40;;;;;;;;;;10386897;22;20098;-86
2022/09/25 21:39:33;;;;;;;30.15;16.25;;;;;;;;;;10387497;22;20046;-86
2022/09/25 21:43:37;;;;;;;62.72;28.25;;;;;;;;;;10390078;22;20566;-86
2022/09/25 21:47:40;;;;;;;54.33;26.30;;;;;;;;;;10389964;22;20024;-86
2022/09/25 21:51:44;;;;;;;47.70;24.38;;;;;;;;;;10388044;22;20399;-85
2022/09/25 21:55:47;;;;;;;44.40;22.80;;;;;;;;;;10389726;22;20038;-86
2022/09/25 21:59:51;;;;;;;39.17;19.48;;;;;;;;;;10390284;22;20031;-86
2022/09/25 22:03:58;;;;;;;41.90;18.58;;;;;;;;;;10389639;22;20436;-86
2022/09/25 22:08:06;;;;;;;32.30;17.83;;;;;;;;;;10406668;22;20099;-86
2022/09/25 22:12:08;;;;;;;38.22;18.65;;;;;;;;;;10389419;22;20027;-86
2022/09/25 22:16:15;;;;;;;38.22;17.92;;;;;;;;;;10388949;22;20023;-91
2022/09/25 22:20:17;;;;;;;34.72;18.38;;;;;;;;;;10404784;22;20016;-86
2022/09/25 22:24:21;;;;;;;36.35;18.73;;;;;;;;;;10388137;22;20099;-87
2022/09/25 22:28:23;;;;;;;37.53;18.10;;;;;;;;;;10388381;22;20046;-86
2022/09/25 22:32:28;;;;;;;34.85;17.60;;;;;;;;;;10387496;22;20019;-88
2022/09/25 22:36:30;;;;;;;31.55;17.75;;;;;;;;;;10387023;22;20024;-86
2022/09/25 22:40:36;;;;;;;67.68;30.60;;;;;;;;;;10387655;22;20019;-91
2022/09/25 22:44:38;;;;;;;50.25;25.55;;;;;;;;;;10405449;22;20023;-86
2022/09/25 22:48:43;;;;;;;42.30;19.55;;;;;;;;;;10388234;22;20019;-86
2022/09/25 22:52:45;;;;;;;35.40;16.90;;;;;;;;;;10387644;22;20047;-87
2022/09/25 22:56:48;;;;;;;34.92;17.63;;;;;;;;;;10387883;22;20027;-88
2022/09/25 23:00:52;;;;;;;30.17;14.70;;;;;;;;;;10388281;22;20019;-87
2022/09/25 23:04:57;;;;;;;26.83;14.38;;;;;;;;;;10388737;22;20077;-87
2022/09/25 23:09:01;;;;;;;31.52;15.32;;;;;;;;;;10388001;22;20506;-86
2022/09/25 23:13:05;;;;;;;28.27;14.70;;;;;;;;;;10389207;22;20348;-85
2022/09/25 23:17:07;;;;;;;28.48;15.82;;;;;;;;;;10388481;22;20012;-86
2022/09/25 23:21:11;;;;;;;27.50;15.40;;;;;;;;;;10388650;22;20266;-87
2022/09/25 23:25:14;;;;;;;26.83;14.75;;;;;;;;;;10387850;22;20444;-87
2022/09/25 23:29:19;;;;;;;29.92;14.45;;;;;;;;;;10388431;22;20026;-88
2022/09/25 23:33:21;;;;;;;26.67;12.88;;;;;;;;;;10405215;22;20023;-87
2022/09/25 23:37:26;;;;;;;22.85;13.00;;;;;;;;;;10388212;22;20046;-86
2022/09/25 23:41:30;;;;;;;25.63;13.93;;;;;;;;;;10387917;22;20031;-87
2022/09/25 23:45:33;;;;;;;22.45;13.82;;;;;;;;;;10387525;22;20015;-87
2022/09/25 23:49:35;;;;;;;23.90;13.57;;;;;;;;;;10388086;22;20016;-87
2022/09/25 23:53:39;;;;;;;24.80;12.85;;;;;;;;;;10387884;22;20020;-87
2022/09/25 23:57:42;;;;;;;29.15;15.27;;;;;;;;;;10387827;22;20440;-88
